Terminal Aerodrome Forecast
Issued by NWS

Home | Current Version | Previous Version | Text Only | Print | Product List | Glossary On
Versions: 1 2 3 4 5 6 7 8 9 10 11 12 13
000
FTUS46 KMTR 272300
TAFOAK
TAF
KOAK 272336Z 2800/2906 29014KT P6SM SCT120
     FM280400 29006KT P6SM FEW010 SCT150
     FM280900 27005KT P6SM BKN010 BKN150
     FM281800 29006KT P6SM FEW010 SCT200
     FM282000 29012KT P6SM SCT200
     FM290400 31006KT P6SM SCT200=

USA.gov is the U.S. government's official web portal to all federal, state and local government web resources and services.